Time;durP1;ratioP1;P1;durP2;ratioP2;P2;SDS_P1;SDS_P2;PMS_P1;PMS_P2;Temp;Humidity;BMP_temperature;BMP_pressure;BME280_temperature;BME280_humidity;BME280_pressure;Samples;Min_cycle;Max_cycle;Signal;HPM_P1;HPM_P2
2022/08/30 00:02:55;;;;;;;;;;;;;;;;;;5053385;28;20058;-69
2022/08/30 00:05:21;;;;;;;;;;;;;;;;;;5053075;28;20306;-69
2022/08/30 00:07:47;;;;;;;;;;;;;;;;;;5053410;28;19919;-70
2022/08/30 00:10:13;;;;;;;;;;;;;;;;;;5053628;28;19920;-69
2022/08/30 00:12:39;;;;;;;;;;;;;;;;;;5053838;28;20281;-69
2022/08/30 00:15:05;;;;;;;;;;;;;;;;;;5053759;28;20290;-67
2022/08/30 00:17:31;;;;;;;;;;;;;;;;;;5053243;28;20373;-69
2022/08/30 00:19:57;;;;;;;;;;;;;;;;;;5052476;28;20017;-69
2022/08/30 00:22:23;;;;;;;;;;;;;;;;;;5052938;28;19932;-69
2022/08/30 00:24:49;;;;;;;;;;;;;;;;;;5053141;28;19936;-69
2022/08/30 00:27:15;;;;;;;;;;;;;;;;;;5053346;28;19909;-70
2022/08/30 00:29:41;;;;;;;;;;;;;;;;;;5051787;28;19957;-69
2022/08/30 00:32:07;;;;;;;;;;;;;;;;;;5053283;28;19909;-69
2022/08/30 00:34:33;;;;;;;;;;;;;;;;;;5052616;28;19939;-69
2022/08/30 00:36:59;;;;;;;;;;;;;;;;;;5053081;28;19917;-69
2022/08/30 00:39:25;;;;;;;;;;;;;;;;;;5053165;28;20369;-69
2022/08/30 00:41:50;;;;;;;;;;;;;;;;;;5053112;28;20277;-68
2022/08/30 00:44:16;;;;;;;;;;;;;;;;;;5051279;28;19954;-68
2022/08/30 00:46:42;;;;;;;;;;;;;;;;;;5053359;28;19909;-67
2022/08/30 00:49:08;;;;;;;;;;;;;;;;;;5052590;28;19909;-68
2022/08/30 00:51:34;;;;;;;;;;;;;;;;;;5052493;28;19909;-68
2022/08/30 00:54:00;;;;;;;;;;;;;;;;;;5052449;28;19933;-69
2022/08/30 00:56:26;;;;;;;;;;;;;;;;;;5052775;28;20285;-69
2022/08/30 00:58:52;;;;;;;;;;;;;;;;;;5052950;28;19909;-68
2022/08/30 01:01:18;;;;;;;;;;;;;;;;;;5052497;28;20288;-69
2022/08/30 01:03:43;;;;;;;;;;;;;;;;;;5051913;28;19933;-69
2022/08/30 01:06:09;;;;;;;;;;;;;;;;;;5052481;28;19909;-68
2022/08/30 01:08:35;;;;;;;;;;;;;;;;;;5052798;28;19908;-68
2022/08/30 01:11:02;;;;;;;;;;;;;;;;;;5052141;28;19909;-69
2022/08/30 01:13:28;;;;;;;;;;;;;;;;;;5052407;28;20361;-70
2022/08/30 01:15:54;;;;;;;;;;;;;;;;;;5052445;28;19924;-69
2022/08/30 01:18:20;;;;;;;;;;;;;;;;;;5051711;28;19941;-70
2022/08/30 01:20:45;;;;;;;;;;;;;;;;;;5051872;28;19909;-68
2022/08/30 01:23:11;;;;;;;;;;;;;;;;;;5052205;28;19912;-68
2022/08/30 01:25:37;;;;;;;;;;;;;;;;;;5052553;28;19955;-68
2022/08/30 01:28:03;;;;;;;;;;;;;;;;;;5051800;28;19917;-69
2022/08/30 01:30:29;;;;;;;;;;;;;;;;;;5052038;28;19908;-70
2022/08/30 01:32:55;;;;;;;;;;;;;;;;;;5051556;28;19909;-69
2022/08/30 01:35:21;;;;;;;;;;;;;;;;;;5051534;28;19921;-69
2022/08/30 01:37:47;;;;;;;;;;;;;;;;;;5051686;28;20699;-69
2022/08/30 01:40:13;;;;;;;;;;;;;;;;;;5051507;28;19909;-68
2022/08/30 01:42:39;;;;;;;;;;;;;;;;;;5051650;28;20300;-69
2022/08/30 01:45:04;;;;;;;;;;;;;;;;;;5033879;28;20000;-69
2022/08/30 01:47:30;;;;;;;;;;;;;;;;;;5051492;28;19908;-70
2022/08/30 01:49:57;;;;;;;;;;;;;;;;;;5051847;28;19909;-67
2022/08/30 01:52:23;;;;;;;;;;;;;;;;;;5051131;28;20011;-68
2022/08/30 01:54:49;;;;;;;;;;;;;;;;;;5051007;28;19920;-67
2022/08/30 01:57:15;;;;;;;;;;;;;;;;;;5051874;28;19921;-66
2022/08/30 01:59:42;;;;;;;;;;;;;;;;;;5051548;28;19913;-67
2022/08/30 02:02:08;;;;;;;;;;;;;;;;;;5050699;28;20259;-67
2022/08/30 02:04:35;;;;;;;;;;;;;;;;;;5051570;28;19916;-66
2022/08/30 02:07:01;;;;;;;;;;;;;;;;;;5051336;28;19909;-67
2022/08/30 02:09:27;;;;;;;;;;;;;;;;;;5051564;28;19915;-67
2022/08/30 02:11:53;;;;;;;;;;;;;;;;;;5051137;28;19962;-67
2022/08/30 02:14:19;;;;;;;;;;;;;;;;;;5050974;28;19956;-67
2022/08/30 02:16:45;;;;;;;;;;;;;;;;;;5050938;28;19917;-68
2022/08/30 02:19:11;;;;;;;;;;;;;;;;;;5051539;28;19915;-67
2022/08/30 02:21:36;;;;;;;;;;;;;;;;;;5050928;28;19996;-66
2022/08/30 02:24:02;;;;;;;;;;;;;;;;;;5051147;28;20492;-67
2022/08/30 02:26:28;;;;;;;;;;;;;;;;;;5049989;28;19913;-67
2022/08/30 02:28:54;;;;;;;;;;;;;;;;;;5051176;28;20365;-67
2022/08/30 02:31:20;;;;;;;;;;;;;;;;;;5050571;28;19916;-68
2022/08/30 02:33:46;;;;;;;;;;;;;;;;;;5051396;28;20007;-67
2022/08/30 02:36:12;;;;;;;;;;;;;;;;;;5051150;28;20365;-66
2022/08/30 02:38:38;;;;;;;;;;;;;;;;;;5050955;28;19962;-67
2022/08/30 02:41:04;;;;;;;;;;;;;;;;;;5050859;28;19909;-66
2022/08/30 02:43:30;;;;;;;;;;;;;;;;;;5051438;28;19931;-67
2022/08/30 02:45:56;;;;;;;;;;;;;;;;;;5050596;28;20365;-67
2022/08/30 02:48:22;;;;;;;;;;;;;;;;;;5050882;28;20357;-68
2022/08/30 02:50:48;;;;;;;;;;;;;;;;;;5050977;28;19913;-67
2022/08/30 02:53:13;;;;;;;;;;;;;;;;;;5052594;28;20392;-66
2022/08/30 02:55:39;;;;;;;;;;;;;;;;;;5054988;28;20003;-68
2022/08/30 02:58:05;;;;;;;;;;;;;;;;;;5054653;28;20373;-67
2022/08/30 03:00:31;;;;;;;;;;;;;;;;;;5054347;28;19917;-67
2022/08/30 03:02:57;;;;;;;;;;;;;;;;;;5055268;28;19908;-68
2022/08/30 03:05:23;;;;;;;;;;;;;;;;;;5054777;28;20003;-68
2022/08/30 03:07:49;;;;;;;;;;;;;;;;;;5055612;28;19909;-66
2022/08/30 03:10:15;;;;;;;;;;;;;;;;;;5054419;28;20276;-67
2022/08/30 03:12:41;;;;;;;;;;;;;;;;;;5054536;28;19913;-68
2022/08/30 03:15:07;;;;;;;;;;;;;;;;;;5053962;28;19947;-66
2022/08/30 03:17:33;;;;;;;;;;;;;;;;;;5054726;28;19916;-68
2022/08/30 03:20:00;;;;;;;;;;;;;;;;;;5054749;28;20320;-68
2022/08/30 03:22:26;;;;;;;;;;;;;;;;;;5054436;28;19913;-69
2022/08/30 03:24:52;;;;;;;;;;;;;;;;;;5053798;28;19962;-67
2022/08/30 03:27:18;;;;;;;;;;;;;;;;;;5054662;28;19916;-69
2022/08/30 03:29:44;;;;;;;;;;;;;;;;;;5054319;28;19913;-67
2022/08/30 03:32:10;;;;;;;;;;;;;;;;;;5053915;28;20000;-68
2022/08/30 03:34:36;;;;;;;;;;;;;;;;;;5054312;28;19940;-67
2022/08/30 03:37:02;;;;;;;;;;;;;;;;;;5054434;28;19925;-68
2022/08/30 03:39:28;;;;;;;;;;;;;;;;;;5053776;28;20019;-67
2022/08/30 03:41:54;;;;;;;;;;;;;;;;;;5053841;28;19916;-67
2022/08/30 03:44:19;;;;;;;;;;;;;;;;;;5053494;28;19908;-69
2022/08/30 03:46:45;;;;;;;;;;;;;;;;;;5054095;28;20405;-67
2022/08/30 03:49:11;;;;;;;;;;;;;;;;;;5054009;28;19912;-68
2022/08/30 03:51:37;;;;;;;;;;;;;;;;;;5053799;28;20015;-69
2022/08/30 03:54:03;;;;;;;;;;;;;;;;;;5053967;28;19924;-69
2022/08/30 03:56:29;;;;;;;;;;;;;;;;;;5053601;28;19916;-69
2022/08/30 03:58:55;;;;;;;;;;;;;;;;;;5052857;28;19909;-68
2022/08/30 04:01:21;;;;;;;;;;;;;;;;;;5053812;28;19920;-67
2022/08/30 04:03:46;;;;;;;;;;;;;;;;;;5052862;28;20378;-67
2022/08/30 04:06:12;;;;;;;;;;;;;;;;;;5053556;28;19920;-67
2022/08/30 04:08:39;;;;;;;;;;;;;;;;;;5053345;28;19909;-68
2022/08/30 04:11:05;;;;;;;;;;;;;;;;;;5053405;28;19913;-69
2022/08/30 04:13:31;;;;;;;;;;;;;;;;;;5053057;28;19909;-68
2022/08/30 04:15:57;;;;;;;;;;;;;;;;;;5053594;28;19917;-68
2022/08/30 04:18:22;;;;;;;;;;;;;;;;;;5053309;28;20003;-69
2022/08/30 04:20:49;;;;;;;;;;;;;;;;;;5053050;28;19909;-68
2022/08/30 04:23:15;;;;;;;;;;;;;;;;;;5053423;28;19908;-67
2022/08/30 04:25:41;;;;;;;;;;;;;;;;;;5053190;28;19939;-68
2022/08/30 04:28:07;;;;;;;;;;;;;;;;;;5052923;28;19912;-68
2022/08/30 04:30:33;;;;;;;;;;;;;;;;;;5053343;28;19912;-69
2022/08/30 04:32:59;;;;;;;;;;;;;;;;;;5046583;28;19909;-68
2022/08/30 04:35:24;;;;;;;;;;;;;;;;;;5053133;28;19971;-68
2022/08/30 04:37:50;;;;;;;;;;;;;;;;;;5053583;28;19916;-67
2022/08/30 04:40:16;;;;;;;;;;;;;;;;;;5052711;28;19909;-68
2022/08/30 04:42:42;;;;;;;;;;;;;;;;;;5052634;28;19908;-68
2022/08/30 04:45:08;;;;;;;;;;;;;;;;;;5053370;28;19920;-68
2022/08/30 04:47:34;;;;;;;;;;;;;;;;;;5053028;28;19909;-67
2022/08/30 04:50:01;;;;;;;;;;;;;;;;;;5052965;28;20003;-68
2022/08/30 04:52:27;;;;;;;;;;;;;;;;;;5052548;28;19955;-67
2022/08/30 04:54:52;;;;;;;;;;;;;;;;;;5051847;28;19960;-67
2022/08/30 04:57:18;;;;;;;;;;;;;;;;;;5052471;28;19925;-68
2022/08/30 04:59:44;;;;;;;;;;;;;;;;;;5053100;28;19920;-68
2022/08/30 05:02:10;;;;;;;;;;;;;;;;;;5052276;28;20400;-68
2022/08/30 05:04:36;;;;;;;;;;;;;;;;;;5052405;28;20004;-67
2022/08/30 05:07:02;;;;;;;;;;;;;;;;;;5052258;28;19913;-67
2022/08/30 05:09:28;;;;;;;;;;;;;;;;;;5052278;28;19913;-67
2022/08/30 05:11:54;;;;;;;;;;;;;;;;;;5051724;28;19913;-68
2022/08/30 05:14:20;;;;;;;;;;;;;;;;;;5052492;28;19908;-67
2022/08/30 05:16:45;;;;;;;;;;;;;;;;;;5051050;28;19917;-67
2022/08/30 05:19:11;;;;;;;;;;;;;;;;;;5052733;28;19916;-67
2022/08/30 05:21:39;;;;;;;;;;;;;;;;;;5052139;28;19998;-68
2022/08/30 05:24:05;;;;;;;;;;;;;;;;;;5051751;28;20400;-67
2022/08/30 05:26:31;;;;;;;;;;;;;;;;;;5051741;28;19909;-67
2022/08/30 05:28:57;;;;;;;;;;;;;;;;;;5051995;28;19995;-68
2022/08/30 05:31:23;;;;;;;;;;;;;;;;;;5052518;28;19916;-68
2022/08/30 05:33:48;;;;;;;;;;;;;;;;;;5051876;28;19920;-69
2022/08/30 05:36:14;;;;;;;;;;;;;;;;;;5052010;28;19960;-68
2022/08/30 05:38:40;;;;;;;;;;;;;;;;;;5051677;28;19913;-68
2022/08/30 05:41:06;;;;;;;;;;;;;;;;;;5051729;28;20377;-68
2022/08/30 05:43:32;;;;;;;;;;;;;;;;;;5051824;28;20349;-67
2022/08/30 05:45:58;;;;;;;;;;;;;;;;;;5051870;28;19912;-68
2022/08/30 05:48:24;;;;;;;;;;;;;;;;;;5052259;28;19920;-67
2022/08/30 05:50:50;;;;;;;;;;;;;;;;;;5051491;28;19909;-67
2022/08/30 05:53:16;;;;;;;;;;;;;;;;;;5051239;28;19913;-67
2022/08/30 05:55:42;;;;;;;;;;;;;;;;;;5050771;28;20309;-68
2022/08/30 05:58:08;;;;;;;;;;;;;;;;;;5051919;28;19942;-68
2022/08/30 06:00:35;;;;;;;;;;;;;;;;;;5051881;28;20297;-68
2022/08/30 06:03:01;;;;;;;;;;;;;;;;;;5051313;28;19913;-67
2022/08/30 06:05:27;;;;;;;;;;;;;;;;;;5051341;28;19909;-68
2022/08/30 06:07:53;;;;;;;;;;;;;;;;;;5050722;28;19954;-69
2022/08/30 06:10:19;;;;;;;;;;;;;;;;;;5051149;28;19942;-69
2022/08/30 06:12:45;;;;;;;;;;;;;;;;;;5051369;28;19913;-68
2022/08/30 06:15:11;;;;;;;;;;;;;;;;;;5051404;28;19924;-68
2022/08/30 06:17:38;;;;;;;;;;;;;;;;;;5051464;28;20293;-68
2022/08/30 06:20:04;;;;;;;;;;;;;;;;;;5051128;28;19948;-68
2022/08/30 06:22:30;;;;;;;;;;;;;;;;;;5050512;28;20337;-67
2022/08/30 06:24:56;;;;;;;;;;;;;;;;;;5051590;28;19909;-68
2022/08/30 06:27:22;;;;;;;;;;;;;;;;;;5050865;28;20292;-68
2022/08/30 06:29:47;;;;;;;;;;;;;;;;;;5050926;28;19948;-67
2022/08/30 06:32:13;;;;;;;;;;;;;;;;;;5051489;28;19948;-68
2022/08/30 06:34:39;;;;;;;;;;;;;;;;;;5051602;28;20395;-67
2022/08/30 06:37:05;;;;;;;;;;;;;;;;;;5050348;28;19920;-69
2022/08/30 06:39:31;;;;;;;;;;;;;;;;;;5051247;28;20332;-68
2022/08/30 06:41:57;;;;;;;;;;;;;;;;;;5051367;28;20025;-68
2022/08/30 06:44:23;;;;;;;;;;;;;;;;;;5050823;28;20297;-69
2022/08/30 06:46:49;;;;;;;;;;;;;;;;;;5051189;28;19971;-67
2022/08/30 06:49:16;;;;;;;;;;;;;;;;;;5050906;28;20368;-67
2022/08/30 06:51:41;;;;;;;;;;;;;;;;;;5050364;28;19913;-66
2022/08/30 06:54:07;;;;;;;;;;;;;;;;;;5050565;28;20339;-67
2022/08/30 06:56:33;;;;;;;;;;;;;;;;;;5050664;28;19921;-67
2022/08/30 06:58:59;;;;;;;;;;;;;;;;;;5050385;28;19917;-67
2022/08/30 07:01:25;;;;;;;;;;;;;;;;;;5050968;28;19913;-67
2022/08/30 07:03:51;;;;;;;;;;;;;;;;;;5050451;28;20358;-68
2022/08/30 07:06:17;;;;;;;;;;;;;;;;;;5049804;28;19916;-68
2022/08/30 07:08:43;;;;;;;;;;;;;;;;;;5050329;28;20380;-67
2022/08/30 07:11:09;;;;;;;;;;;;;;;;;;5050054;28;19959;-68
2022/08/30 07:13:35;;;;;;;;;;;;;;;;;;5050035;28;19954;-68
2022/08/30 07:16:01;;;;;;;;;;;;;;;;;;5050416;28;19975;-68
2022/08/30 07:21:11;;;;;;;;;;;;;;;;;;5044575;28;19916;-69
2022/08/30 07:23:37;;;;;;;;;;;;;;;;;;5044496;28;19913;-64
2022/08/30 07:26:04;;;;;;;;;;;;;;;;;;5048037;28;20400;-65
2022/08/30 07:28:30;;;;;;;;;;;;;;;;;;5040203;28;20014;-64
2022/08/30 07:30:55;;;;;;;;;;;;;;;;;;5044189;28;20385;-64
2022/08/30 07:33:21;;;;;;;;;;;;;;;;;;5049542;28;20362;-65
2022/08/30 07:35:47;;;;;;;;;;;;;;;;;;5048934;28;19962;-65
2022/08/30 07:38:13;;;;;;;;;;;;;;;;;;5049905;28;19916;-66
2022/08/30 07:40:39;;;;;;;;;;;;;;;;;;5053167;28;19921;-66
2022/08/30 07:43:05;;;;;;;;;;;;;;;;;;5053420;28;19913;-65
2022/08/30 07:45:31;;;;;;;;;;;;;;;;;;5052861;28;20008;-66
2022/08/30 07:47:57;;;;;;;;;;;;;;;;;;5044957;28;19991;-66
2022/08/30 07:50:23;;;;;;;;;;;;;;;;;;5046661;28;20599;-66
2022/08/30 07:52:49;;;;;;;;;;;;;;;;;;5049293;28;19913;-66
2022/08/30 07:55:15;;;;;;;;;;;;;;;;;;5048123;28;19970;-64
2022/08/30 07:57:41;;;;;;;;;;;;;;;;;;5051647;28;19913;-65
2022/08/30 08:00:07;;;;;;;;;;;;;;;;;;5052107;28;20357;-66
2022/08/30 08:02:33;;;;;;;;;;;;;;;;;;5052135;28;19921;-65
2022/08/30 08:04:59;;;;;;;;;;;;;;;;;;5051689;28;19959;-66
2022/08/30 08:07:25;;;;;;;;;;;;;;;;;;5052085;28;19955;-67
2022/08/30 08:09:51;;;;;;;;;;;;;;;;;;5051151;28;19952;-66
2022/08/30 08:12:17;;;;;;;;;;;;;;;;;;5046346;28;19913;-65
2022/08/30 08:14:43;;;;;;;;;;;;;;;;;;5052442;28;19963;-67
2022/08/30 08:17:09;;;;;;;;;;;;;;;;;;5052305;28;19921;-67
2022/08/30 08:19:34;;;;;;;;;;;;;;;;;;5051651;28;20373;-65
2022/08/30 08:22:01;;;;;;;;;;;;;;;;;;5052331;28;19909;-65
2022/08/30 08:24:27;;;;;;;;;;;;;;;;;;5052055;28;19913;-64
2022/08/30 08:26:53;;;;;;;;;;;;;;;;;;5051569;28;19915;-65
2022/08/30 08:29:19;;;;;;;;;;;;;;;;;;5052464;28;20011;-66
2022/08/30 08:31:45;;;;;;;;;;;;;;;;;;5051581;28;20031;-67
2022/08/30 08:34:11;;;;;;;;;;;;;;;;;;5050854;28;19913;-66
2022/08/30 08:36:37;;;;;;;;;;;;;;;;;;5052566;28;19924;-66
2022/08/30 08:39:03;;;;;;;;;;;;;;;;;;5051642;28;19913;-64
2022/08/30 08:41:29;;;;;;;;;;;;;;;;;;5051580;28;20015;-66
2022/08/30 08:43:55;;;;;;;;;;;;;;;;;;5051958;28;19917;-64
2022/08/30 08:46:21;;;;;;;;;;;;;;;;;;5051388;28;19913;-64
2022/08/30 08:48:48;;;;;;;;;;;;;;;;;;5051152;28;19909;-67
2022/08/30 08:53:58;;;;;;;;;;;;;;;;;;5051612;28;19947;-66
2022/08/30 08:56:24;;;;;;;;;;;;;;;;;;5050608;28;20340;-66
2022/08/30 08:58:50;;;;;;;;;;;;;;;;;;5048736;28;19920;-66
2022/08/30 09:01:16;;;;;;;;;;;;;;;;;;5050880;28;20589;-63
2022/08/30 09:03:42;;;;;;;;;;;;;;;;;;5049561;28;19963;-64
2022/08/30 09:06:08;;;;;;;;;;;;;;;;;;5047536;28;19958;-66
2022/08/30 09:08:35;;;;;;;;;;;;;;;;;;5050379;28;19919;-65
2022/08/30 09:11:01;;;;;;;;;;;;;;;;;;5050629;28;19939;-65
2022/08/30 09:13:27;;;;;;;;;;;;;;;;;;5050605;28;20441;-64
2022/08/30 09:15:53;;;;;;;;;;;;;;;;;;5050969;28;19916;-64
2022/08/30 09:18:19;;;;;;;;;;;;;;;;;;5050529;28;20079;-64
2022/08/30 09:20:47;;;;;;;;;;;;;;;;;;5050910;28;19909;-66
2022/08/30 09:23:13;;;;;;;;;;;;;;;;;;5050723;28;19909;-64
2022/08/30 09:25:39;;;;;;;;;;;;;;;;;;5050728;28;19916;-66
2022/08/30 09:28:05;;;;;;;;;;;;;;;;;;5050279;28;20348;-64
2022/08/30 09:30:31;;;;;;;;;;;;;;;;;;5050106;28;20329;-65
2022/08/30 09:32:57;;;;;;;;;;;;;;;;;;5050278;28;20011;-66
2022/08/30 09:35:22;;;;;;;;;;;;;;;;;;5049714;28;19909;-65
2022/08/30 09:37:48;;;;;;;;;;;;;;;;;;5050088;28;20023;-64
2022/08/30 09:40:14;;;;;;;;;;;;;;;;;;5045879;28;19913;-64
2022/08/30 09:42:41;;;;;;;;;;;;;;;;;;5050839;28;19913;-63
2022/08/30 09:45:10;;;;;;;;;;;;;;;;;;5049945;28;19909;-65
2022/08/30 09:47:37;;;;;;;;;;;;;;;;;;5044258;28;19958;-64
2022/08/30 09:50:03;;;;;;;;;;;;;;;;;;5050271;28;19953;-64
2022/08/30 09:52:31;;;;;;;;;;;;;;;;;;5049257;28;20208;-63
2022/08/30 09:54:56;;;;;;;;;;;;;;;;;;5049264;28;19970;-64
2022/08/30 09:57:22;;;;;;;;;;;;;;;;;;5050323;28;19940;-66
2022/08/30 09:59:48;;;;;;;;;;;;;;;;;;5049618;28;19909;-64
2022/08/30 10:02:14;;;;;;;;;;;;;;;;;;5049194;28;19909;-66
2022/08/30 10:04:40;;;;;;;;;;;;;;;;;;5049653;28;19912;-65
2022/08/30 10:07:06;;;;;;;;;;;;;;;;;;5049716;28;19913;-64
2022/08/30 10:09:32;;;;;;;;;;;;;;;;;;5049928;28;19995;-65
2022/08/30 10:11:58;;;;;;;;;;;;;;;;;;5046611;28;19916;-64
2022/08/30 10:14:24;;;;;;;;;;;;;;;;;;5049968;28;19908;-66
2022/08/30 10:16:50;;;;;;;;;;;;;;;;;;5049485;28;19966;-64
2022/08/30 10:19:15;;;;;;;;;;;;;;;;;;5050944;28;19916;-65
2022/08/30 10:21:41;;;;;;;;;;;;;;;;;;5050255;28;19963;-72
2022/08/30 10:24:07;;;;;;;;;;;;;;;;;;5050708;28;19940;-72
2022/08/30 10:26:33;;;;;;;;;;;25.10;63.70;;;;;;5048285;28;20293;-72
2022/08/30 10:29:17;;;;;;;;;;;22.80;82.50;;;;;;5050542;28;19913;-73
2022/08/30 10:32:01;;;;;;;;;;;22.70;81.10;;;;;;5050844;28;19913;-73
2022/08/30 10:34:34;;;;;;;;;;;22.70;80.70;;;;;;5044458;28;19908;-73
2022/08/30 10:37:06;;;;;;;;;;;22.70;81.80;;;;;;5050862;28;20032;-73
2022/08/30 10:39:35;;;;;;;;;;;22.80;80.60;;;;;;5051126;28;20549;-73
2022/08/30 10:42:20;;;;;;;;;;;22.80;79.90;;;;;;5050599;28;19912;-73
2022/08/30 10:44:50;;;;;;;;;;;22.80;80.90;;;;;;5049803;28;19919;-74
2022/08/30 10:47:22;;;;;;;;;;;22.80;81.30;;;;;;5050624;28;19948;-74
2022/08/30 10:49:49;;;;;;;;;;;23.00;81.90;;;;;;5050283;28;19932;-73
2022/08/30 10:52:24;;;;;;;;;;;23.00;82.00;;;;;;5050256;28;19909;-74
2022/08/30 10:54:53;;;;;;;;;;;23.10;81.00;;;;;;5050208;28;19961;-73
2022/08/30 10:57:19;;;;;;;;;;;23.10;80.70;;;;;;5050191;28;19927;-74
2022/08/30 10:59:51;;;;;;;;;;;23.20;81.30;;;;;;5049463;28;20335;-74
2022/08/30 11:02:28;;;;;;;;;;;23.20;81.20;;;;;;5049789;28;19913;-74
2022/08/30 11:04:54;;;;;;;;;;;23.20;80.30;;;;;;5044370;28;19913;-74
2022/08/30 11:07:38;;;;;;;;;;;23.30;80.10;;;;;;5050399;28;19976;-75
2022/08/30 11:10:03;;;;;;;;;;;23.30;80.80;;;;;;5049603;28;19909;-74
2022/08/30 11:12:41;;;;;;;;;;;23.40;80.00;;;;;;5049526;28;20027;-74
2022/08/30 11:15:18;;;;;;;;;;;23.40;80.20;;;;;;5053318;28;19909;-74
2022/08/30 11:17:53;;;;;;;;;;;23.40;79.60;;;;;;5053992;28;19917;-74
2022/08/30 11:20:38;;;;;;;;;;;23.30;79.60;;;;;;5053984;28;19966;-74
2022/08/30 11:23:23;;;;;;;;;;;23.30;79.70;;;;;;5048485;28;20364;-74
2022/08/30 11:25:50;;;;;;;;;;;23.40;79.70;;;;;;5053703;28;20377;-73
2022/08/30 11:28:34;;;;;;;;;;;23.40;79.80;;;;;;5053161;28;20429;-73
2022/08/30 11:31:18;;;;;;;;;;;23.40;79.80;;;;;;5053980;28;19920;-74
2022/08/30 11:33:45;;;;;;;;;;;23.50;79.80;;;;;;5053683;28;19948;-73
2022/08/30 11:36:31;;;;;;;;;;;23.60;80.00;;;;;;5053518;28;19979;-74
2022/08/30 11:38:56;;;;;;;;;;;23.60;80.10;;;;;;5053332;28;19909;-72
2022/08/30 11:41:33;;;;;;;;;;;23.70;79.30;;;;;;5053232;28;19913;-73
2022/08/30 11:44:11;;;;;;;;;;;23.70;79.40;;;;;;5053301;28;19909;-72
2022/08/30 11:46:39;;;;;;;;;;;23.80;79.10;;;;;;5053593;28;19916;-74
2022/08/30 11:49:24;;;;;;;;;;;23.80;78.70;;;;;;5054067;28;19908;-73
2022/08/30 11:52:09;;;;;;;;;;;23.80;79.00;;;;;;5053340;28;19909;-74
2022/08/30 11:54:49;;;;;;;;;;;23.80;77.90;;;;;;5053574;28;19920;-73
2022/08/30 11:57:17;;;;;;;;;;;23.80;77.90;;;;;;5053562;28;20015;-72
2022/08/30 11:59:46;;;;;;;;;;;23.80;77.00;;;;;;5053776;28;19913;-73
2022/08/30 12:02:30;;;;;;;;;;;23.70;77.40;;;;;;5053382;28;19913;-73
2022/08/30 12:04:55;;;;;;;;;;;23.70;77.60;;;;;;5048189;28;19909;-73
2022/08/30 12:07:39;;;;;;;;;;;23.70;77.60;;;;;;5053738;28;20008;-72
2022/08/30 12:10:05;;;;;;;;;;;23.80;78.30;;;;;;5053148;28;19947;-73
2022/08/30 12:12:36;;;;;;;;;;;23.80;78.30;;;;;;5053515;28;19913;-73
2022/08/30 12:15:03;;;;;;;;;;;24.00;78.80;;;;;;5053357;28;19912;-73
2022/08/30 12:20:42;;;;;;;;;;;24.10;78.00;;;;;;4953507;29;20319;-73
2022/08/30 12:23:19;;;;;;;;;;;24.10;77.90;;;;;;4953157;29;19915;-72
2022/08/30 12:25:45;;;;;;;;;;;24.10;77.80;;;;;;4951931;28;19914;-73
2022/08/30 12:28:13;;;;;;;;;;;24.20;77.70;;;;;;4953007;28;19958;-73
2022/08/30 12:30:39;;;;;;;;;;;24.20;77.60;;;;;;4953102;29;19914;-73
2022/08/30 12:33:08;;;;;;;;;;;24.30;77.10;;;;;;4953197;28;19996;-71
2022/08/30 12:35:34;;;;;;;;;;;24.30;77.60;;;;;;4952548;28;19949;-72
2022/08/30 12:38:01;;;;;;;;;;;24.30;76.60;;;;;;4952895;28;19945;-72
2022/08/30 12:40:29;;;;;;;;;;;24.30;76.80;;;;;;4946514;28;19929;-73
2022/08/30 12:42:56;;;;;;;;;;;24.30;76.70;;;;;;4951667;29;19910;-73
2022/08/30 12:45:28;;;;;;;;;;;24.30;77.40;;;;;;4951024;28;19953;-72
2022/08/30 12:48:02;;;;;;;;;;;24.30;76.70;;;;;;4949094;29;19914;-71
2022/08/30 12:50:33;;;;;;;;;;;24.40;77.20;;;;;;4967277;28;20297;-72
2022/08/30 12:53:00;;;;;;;;;;;24.30;76.30;;;;;;5051871;28;19915;-72
2022/08/30 12:55:28;;;;;;;;;;;24.30;75.90;;;;;;5051047;28;19993;-73
2022/08/30 12:57:56;;;;;;;;;;;24.40;76.70;;;;;;5050233;28;19920;-70
2022/08/30 13:00:28;;;;;;;;;;;24.40;77.20;;;;;;5049031;28;19913;-70
2022/08/30 13:02:55;;;;;;;;;;;24.40;76.10;;;;;;5050336;28;20000;-72
2022/08/30 13:05:39;;;;;;;;;;;24.50;76.40;;;;;;5050507;28;19970;-73
2022/08/30 13:08:07;;;;;;;;;;;24.50;76.40;;;;;;5050358;28;19924;-73
2022/08/30 13:10:33;;;;;;;;;;;24.50;76.20;;;;;;5048294;28;19913;-72
2022/08/30 13:13:00;;;;;;;;;;;24.50;75.60;;;;;;5051155;28;19926;-73
2022/08/30 13:15:47;;;;;;;;;;;24.40;75.60;;;;;;5047477;28;19912;-73
2022/08/30 13:18:17;;;;;;;;;;;24.50;75.90;;;;;;5050212;28;19939;-70
2022/08/30 13:20:43;;;;;;;;;;;24.50;76.30;;;;;;5050462;28;19959;-70
2022/08/30 13:23:09;;;;;;;;;;;24.50;75.90;;;;;;5050266;28;19913;-72
2022/08/30 13:25:37;;;;;;;;;;;24.50;75.50;;;;;;5047371;28;19952;-72
2022/08/30 13:28:03;;;;;;;;;;;24.50;75.40;;;;;;5050167;28;20272;-71
2022/08/30 13:30:29;;;;;;;;;;;24.60;75.70;;;;;;5050352;28;19909;-71
2022/08/30 13:32:54;;;;;;;;;;;24.60;76.10;;;;;;5050795;28;20281;-71
2022/08/30 13:35:20;;;;;;;;;;;24.60;75.50;;;;;;5050404;28;20347;-74
2022/08/30 13:37:45;;;;;;;;;;;24.60;75.70;;;;;;5049160;28;20223;-73
2022/08/30 13:40:12;;;;;;;;;;;24.60;75.80;;;;;;5050189;28;19931;-72
2022/08/30 13:42:40;;;;;;;;;;;24.60;75.70;;;;;;5050234;28;20294;-74
2022/08/30 13:45:06;;;;;;;;;;;24.60;75.10;;;;;;5050607;28;19917;-73
2022/08/30 13:47:31;;;;;;;;;;;24.60;75.40;;;;;;5050031;28;19951;-73
2022/08/30 13:49:57;;;;;;;;;;;24.60;75.80;;;;;;5050274;28;19909;-73
2022/08/30 13:52:24;;;;;;;;;;;24.70;75.90;;;;;;5049845;28;20377;-73
2022/08/30 13:54:51;;;;;;;;;;;24.70;75.00;;;;;;5049771;28;19925;-73
2022/08/30 13:57:17;;;;;;;;;;;24.70;75.60;;;;;;5049758;28;19924;-73
2022/08/30 13:59:42;;;;;;;;;;;24.70;75.70;;;;;;5050261;28;19970;-71
2022/08/30 14:02:08;;;;;;;;;;;24.70;75.40;;;;;;5050259;28;19909;-72
2022/08/30 14:04:33;;;;;;;;;;;24.60;75.20;;;;;;5050197;28;19909;-73
2022/08/30 14:06:59;;;;;;;;;;;24.60;75.10;;;;;;5049810;28;19916;-74
2022/08/30 14:09:24;;;;;;;;;;;24.60;75.30;;;;;;5049735;28;19990;-73
2022/08/30 14:11:50;;;;;;;;;;;24.70;75.40;;;;;;5050583;28;20254;-73
2022/08/30 14:14:15;;;;;;;;;;;24.70;75.00;;;;;;5049707;28;19909;-72
2022/08/30 14:16:41;;;;;;;;;;;24.70;74.90;;;;;;5049942;28;19923;-72
2022/08/30 14:19:07;;;;;;;;;;;24.70;74.60;;;;;;5049984;28;19909;-73
2022/08/30 14:21:33;;;;;;;;;;;24.70;74.40;;;;;;5049524;28;19927;-72
2022/08/30 14:23:59;;;;;;;;;;;24.70;74.60;;;;;;5032192;28;19912;-74
2022/08/30 14:26:27;;;;;;;;;;;24.70;73.90;;;;;;5031465;28;20358;-71
2022/08/30 14:28:53;;;;;;;;;;;24.70;73.90;;;;;;5049937;28;20316;-73
2022/08/30 14:31:19;;;;;;;;;;;24.70;73.90;;;;;;5049377;28;20361;-72
2022/08/30 14:33:44;;;;;;;;;;;24.70;73.40;;;;;;5049440;28;19977;-74
2022/08/30 14:36:11;;;;;;;;;;;24.70;73.00;;;;;;5048515;28;19920;-73
2022/08/30 14:38:36;;;;;;;;;;;24.70;73.50;;;;;;5049370;28;19920;-73
2022/08/30 14:41:03;;;;;;;;;;;24.70;72.70;;;;;;5049086;28;19912;-71
2022/08/30 14:43:28;;;;;;;;;;;24.80;72.60;;;;;;5042170;28;19913;-73
2022/08/30 14:45:56;;;;;;;;;;;24.80;72.50;;;;;;5049101;28;19915;-73
2022/08/30 14:48:21;;;;;;;;;;;24.80;72.50;;;;;;5052171;28;19909;-73
2022/08/30 14:50:47;;;;;;;;;;;24.90;71.80;;;;;;5055438;28;19909;-72
2022/08/30 14:53:12;;;;;;;;;;;24.90;71.30;;;;;;5056055;28;20411;-70
2022/08/30 14:55:39;;;;;;;;;;;24.90;71.50;;;;;;5055956;28;20003;-73
2022/08/30 14:58:05;;;;;;;;;;;24.90;71.60;;;;;;5055841;28;19916;-72
2022/08/30 15:00:31;;;;;;;;;;;25.00;71.00;;;;;;5056162;28;19913;-71
2022/08/30 15:02:56;;;;;;;;;;;25.00;71.40;;;;;;5055542;28;19908;-73
2022/08/30 15:05:22;;;;;;;;;;;25.00;71.60;;;;;;5055378;28;19916;-74
2022/08/30 15:07:49;;;;;;;;;;;25.10;71.90;;;;;;5056034;28;19913;-73
2022/08/30 15:10:17;;;;;;;;;;;25.10;71.10;;;;;;5055289;28;19908;-74
2022/08/30 15:12:44;;;;;;;;;;;25.10;70.70;;;;;;5055489;28;19979;-72
2022/08/30 15:15:11;;;;;;;;;;;25.20;70.20;;;;;;5055081;28;19917;-73
2022/08/30 15:17:37;;;;;;;;;;;25.10;70.10;;;;;;5055223;28;19959;-71
2022/08/30 15:20:02;;;;;;;;;;;25.10;69.90;;;;;;5055210;28;19951;-72
2022/08/30 15:22:28;;;;;;;;;;;25.10;70.80;;;;;;5055593;28;19920;-72
2022/08/30 15:24:54;;;;;;;;;;;25.20;70.80;;;;;;5055573;28;20442;-72
2022/08/30 15:27:20;;;;;;;;;;;25.20;69.70;;;;;;5055664;28;19912;-71
2022/08/30 15:29:45;;;;;;;;;;;25.30;70.20;;;;;;5055302;28;19912;-71
2022/08/30 15:32:11;;;;;;;;;;;25.30;70.60;;;;;;5055535;28;19963;-72
2022/08/30 15:34:36;;;;;;;;;;;25.40;70.60;;;;;;5055186;28;20626;-72
2022/08/30 15:37:03;;;;;;;;;;;25.40;70.60;;;;;;5055497;28;19921;-73
2022/08/30 15:39:29;;;;;;;;;;;25.40;70.20;;;;;;5056470;28;19917;-73
2022/08/30 15:41:55;;;;;;;;;;;25.40;70.00;;;;;;5056405;28;20339;-74
2022/08/30 15:44:20;;;;;;;;;;;25.40;69.90;;;;;;5055696;28;19913;-73
2022/08/30 15:46:46;;;;;;;;;;;25.50;70.00;;;;;;5056640;28;20327;-71
2022/08/30 15:49:11;;;;;;;;;;;25.50;69.50;;;;;;5055821;28;19913;-74
2022/08/30 15:51:37;;;;;;;;;;;25.50;69.70;;;;;;5056337;28;19963;-72
2022/08/30 15:54:04;;;;;;;;;;;25.50;68.80;;;;;;5053171;28;20461;-75
2022/08/30 15:56:30;;;;;;;;;;;25.50;68.70;;;;;;5053142;28;20008;-74
2022/08/30 15:58:55;;;;;;;;;;;25.60;69.80;;;;;;5055922;28;19915;-74